Latest Weather Observations for Cape Borda

IDS60801

Issued at 7:51 pm CDT Tuesday 23 October 2018 (issued every 10 minutes, with the page automatically refreshed every 10 minutes)

About weather observations | Map of weather stations | Latest weather observations for SA | Other Formats
Station Details ID: 022823 Name: CAPE BORDA Lat: -35.75 Lon: 136.60 Height: 158.0 m
Data from the previous 72 hours. | See also: Recent months at Cape Borda
Date/Time
CDT
Temp
°C
App
Temp
°C
Dew
Point
°C
Rel
Hum
%
Delta-T
°C
Wind Press
QNH
hPa
Press
MSL
hPa
Rain since
9am
mm
Dir  Spd
km/h
Gust
km/h
Spd
kts
Gust
kts
23/07:30pm 10.9 6.3 3.7 61 3.2 S 17 24 9 13 1022.3 - 0.0
23/07:00pm 11.6 6.3 3.2 56 3.7 S 20 28 11 15 1022.0 - 0.0
23/06:30pm 12.7 7.5 3.3 52 4.2 SSW 20 28 11 15 1021.6 - 0.0
23/06:00pm 12.7 6.5 2.4 49 4.5 SSW 24 35 13 19 1021.3 1021.2 0.0
23/05:30pm 13.6 7.5 2.5 47 4.9 SSW 24 33 13 18 1021.1 - 0.0
23/05:00pm 13.8 7.3 2.8 47 4.9 SSW 26 35 14 19 1020.8 - 0.0
23/04:30pm 14.5 8.0 2.7 45 5.3 SSW 26 37 14 20 1020.4 - 0.0
23/04:00pm 14.9 8.4 2.7 44 5.5 SSW 26 35 14 19 1020.3 - 0.0
23/03:30pm 14.6 7.9 1.6 41 5.7 SSW 26 39 14 21 1020.2 - 0.0
23/03:00pm 14.7 8.7 3.3 46 5.2 SSW 24 35 13 19 1020.1 1020.1 0.0
23/02:30pm 15.4 9.4 3.4 44 5.5 SW 24 33 13 18 1020.3 - 0.0
23/02:00pm 15.0 8.3 3.7 46 5.2 SSW 28 39 15 21 1020.0 - 0.0
23/01:30pm 14.3 8.7 5.2 54 4.3 SSW 24 32 13 17 1019.8 - 0.0
23/01:00pm 15.3 8.8 4.9 50 4.9 SW 28 41 15 22 1019.8 - 0.0
23/12:30pm 15.2 9.6 3.7 46 5.3 SW 22 33 12 18 1020.0 - 0.0
23/12:00pm 14.7 9.5 3.5 47 5.1 SW 20 32 11 17 1020.0 1020.0 0.0
23/11:30am 14.3 7.8 4.7 52 4.5 SSW 28 37 15 20 1019.7 - 0.0
23/11:00am 13.8 7.7 4.8 54 4.2 SW 26 35 14 19 1019.5 - 0.0
23/10:30am 14.7 9.4 5.2 53 4.5 SSW 22 35 12 19 1019.0 - 0.0
23/10:00am 13.8 9.2 6.3 60 3.6 SSW 20 30 11 16 1019.0 - 0.0
23/09:30am 12.9 7.5 6.2 64 3.2 SSW 24 33 13 18 1018.7 - 0.0
23/09:00am 13.0 7.3 5.1 58 3.7 SSW 24 33 13 18 1018.3 1018.3 0.0
23/08:30am 12.6 6.6 5.3 61 3.4 SW 26 33 14 18 1018.0 - 0.0
23/08:00am 11.8 6.6 5.6 66 2.9 SW 22 33 12 18 1017.5 - 0.0
23/07:30am 11.6 6.0 5.4 65 2.9 SW 24 32 13 17 1017.1 - 0.0
23/07:00am 10.9 4.5 5.3 68 2.6 SW 28 35 15 19 1016.7 - 0.0
23/06:30am 10.9 5.3 8.7 86 1.1 SW 28 46 15 25 1016.4 - 0.0
23/06:26am 11.3 5.6 8.5 83 1.4 SW 28 46 15 25 1016.3 - 0.0
23/06:00am 11.5 7.0 6.9 73 2.2 SW 20 32 11 17 1015.8 1015.7 0.0
23/05:30am 11.7 6.8 6.7 71 2.4 SW 22 33 12 18 1015.4 - 0.0
23/05:00am 11.6 7.3 7.7 77 1.9 WSW 20 30 11 16 1015.1 - 0.0
23/04:30am 11.5 6.0 7.6 77 1.9 SW 26 41 14 22 1015.1 - 0.0
23/04:00am 12.3 7.2 6.0 65 3.0 WSW 22 39 12 21 1014.9 - 0.0
23/03:30am 12.3 7.1 5.5 63 3.2 WSW 22 33 12 18 1014.9 - 0.0
23/03:00am 12.4 6.7 5.1 61 3.4 WSW 24 35 13 19 1014.9 1014.8 0.0
23/02:30am 12.1 7.0 6.2 67 2.8 WSW 22 32 12 17 1014.9 - 0.0
23/02:00am 11.7 6.8 5.2 64 3.0 SW 20 30 11 16 1014.9 - 0.0
23/01:30am 12.0 6.6 6.3 68 2.7 SW 24 33 13 18 1015.0 - 0.0
23/01:00am 12.2 6.4 6.1 66 2.9 SW 26 35 14 19 1014.9 - 0.0
23/12:30am 12.0 7.5 6.8 70 2.5 SW 20 32 11 17 1014.5 - 0.0
23/12:00am 12.3 7.6 7.8 74 2.2 SW 22 32 12 17 1014.3 1014.2 0.0
 
Date/Time
CDT
Temp
°C
App
Temp
°C
Dew
Point
°C
Rel
Hum
%
Delta-T
°C
Wind Press
QNH
hPa
Press
MSL
hPa
Rain since
9am
mm
Dir  Spd
km/h
Gust
km/h
Spd
kts
Gust
kts
22/11:30pm 12.4 7.9 8.4 76 2.0 WSW 22 32 12 17 1014.0 - 0.0
22/11:00pm 12.6 7.6 8.2 74 2.2 WSW 24 33 13 18 1014.0 - 0.0
22/10:30pm 12.5 7.6 8.5 76 2.0 SW 24 35 13 19 1013.9 - 0.0
22/10:00pm 12.3 8.1 8.1 75 2.1 SW 20 28 11 15 1013.7 - 0.0
22/09:30pm 12.5 8.4 8.7 77 1.9 SW 20 32 11 17 1013.5 - 0.0
22/09:00pm 12.9 7.5 9.4 79 1.8 SW 28 39 15 21 1013.3 1013.3 0.0
22/08:30pm 13.3 7.7 10.2 81 1.6 WSW 30 43 16 23 1012.9 - 0.0
22/08:00pm 13.5 7.9 10.0 79 1.8 SW 30 43 16 23 1012.7 - 0.0
22/07:30pm 13.9 9.5 10.5 80 1.8 SW 24 35 13 19 1012.4 - 0.0
22/07:00pm 14.6 10.3 10.6 77 2.1 SW 24 32 13 17 1012.1 - 0.0
22/06:30pm 14.8 10.4 10.5 75 2.3 SW 24 33 13 18 1012.1 - 0.0
22/06:00pm 15.5 11.3 11.2 75 2.3 SW 24 33 13 18 1012.0 1012.0 0.0
22/05:30pm 15.6 11.5 11.4 76 2.3 SW 24 35 13 19 1011.9 - 0.0
22/05:00pm 16.3 13.0 11.5 73 2.6 WSW 20 30 11 16 1012.0 - 0.0
22/04:30pm 16.6 13.1 12.1 75 2.5 WSW 22 30 12 16 1011.9 - 0.0
22/04:00pm 16.8 13.0 12.3 75 2.5 WSW 24 30 13 16 1011.7 - 0.0
22/03:30pm 17.3 14.3 12.7 74 2.6 WSW 20 30 11 16 1011.7 - 0.0
22/03:00pm 17.5 14.0 12.1 70 3.0 WSW 22 28 12 15 1011.7 1011.7 0.0
22/02:30pm 18.0 15.0 12.7 71 3.0 WSW 20 26 11 14 1011.9 - 0.0
22/02:00pm 18.2 16.0 13.3 73 2.8 W 17 24 9 13 1012.0 - 0.0
22/01:30pm 18.0 15.8 13.4 74 2.6 W 17 20 9 11 1012.0 - 0.0
22/01:00pm 18.1 16.0 12.4 69 3.2 WNW 15 19 8 10 1011.9 - 0.0
22/12:30pm 19.1 16.5 9.3 53 5.2 WNW 13 17 7 9 1011.6 - 0.0
22/12:00pm 20.2 16.8 7.7 44 6.5 W 15 20 8 11 1011.4 1011.4 0.0
22/11:30am 21.5 16.0 4.1 32 8.5 SW 22 32 12 17 1010.9 - 0.0
22/11:00am 21.2 16.1 4.2 32 8.3 SW 20 30 11 16 1010.4 - 0.0
22/10:30am 20.7 16.2 4.3 34 8.0 SW 17 24 9 13 1010.7 - 0.0
22/10:00am 20.2 16.9 4.7 36 7.6 SW 11 17 6 9 1010.9 - 0.0
22/09:30am 19.8 16.4 5.8 40 7.0 SW 13 19 7 10 1010.9 - 0.0
22/09:00am 17.8 15.6 9.5 58 4.4 S 11 15 6 8 1010.8 1010.7 0.0
22/08:30am 16.4 13.3 10.2 66 3.3 SSW 17 26 9 14 1010.8 - 0.0
22/08:00am 15.9 12.3 10.5 70 2.9 SW 20 28 11 15 1010.6 - 0.0
22/07:30am 15.2 11.7 10.1 71 2.7 SW 19 26 10 14 1010.2 - 0.0
22/07:00am 14.5 12.4 11.3 81 1.7 WSW 13 20 7 11 1010.1 - 0.0
22/06:30am 15.5 12.4 10.4 71 2.7 WNW 17 20 9 11 1010.0 - 0.0
22/06:00am 16.2 12.8 7.5 56 4.4 N 15 20 8 11 1009.1 1009.0 0.0
22/05:30am 15.5 11.8 8.0 61 3.8 NNE 17 20 9 11 1008.7 - 0.0
22/05:00am 16.1 10.9 7.1 55 4.5 NE 24 32 13 17 1008.7 - 0.0
22/04:30am 16.0 11.0 6.5 53 4.7 NE 22 32 12 17 1008.7 - 0.0
22/04:00am 16.0 10.8 5.7 50 5.0 NE 22 30 12 16 1008.7 - 0.0
22/03:30am 14.9 10.1 7.5 61 3.7 ENE 22 28 12 15 1009.2 - 0.0
22/03:00am 14.7 10.2 8.4 66 3.2 ENE 22 30 12 16 1009.4 1009.3 0.0
22/02:30am 14.5 9.8 9.1 70 2.8 ENE 24 33 13 18 1009.8 - 0.0
22/02:00am 14.8 10.2 8.1 64 3.4 ENE 22 30 12 16 1010.4 - 0.0
22/01:30am 15.0 10.5 7.1 59 3.9 NE 20 26 11 14 1010.8 - 0.0
22/01:00am 14.2 10.3 8.5 68 2.9 ENE 19 24 10 13 1011.2 - 0.0
22/12:30am 14.1 9.6 8.6 69 2.8 ENE 22 28 12 15 1011.7 - 0.0
22/12:00am 14.1 9.6 8.4 68 2.9 ENE 22 28 12 15 1012.1 1012.1 0.0
 
Date/Time
CDT
Temp
°C
App
Temp
°C
Dew
Point
°C
Rel
Hum
%
Delta-T
°C
Wind Press
QNH
hPa
Press
MSL
hPa
Rain since
9am
mm
Dir  Spd
km/h
Gust
km/h
Spd
kts
Gust
kts
21/11:30pm 14.2 9.1 7.8 65 3.2 ENE 24 32 13 17 1012.6 - 0.0
21/11:00pm 14.2 9.1 7.6 64 3.3 ENE 24 32 13 17 1012.9 - 0.0
21/10:30pm 14.2 9.1 7.8 65 3.2 ENE 24 32 13 17 1013.3 - 0.0
21/10:00pm 14.3 9.5 7.4 63 3.4 ENE 22 28 12 15 1013.5 - 0.0
21/09:30pm 14.2 9.9 6.9 61 3.6 ENE 19 22 10 12 1013.6 - 0.0
21/09:00pm 14.5 10.6 7.2 61 3.6 ENE 17 20 9 11 1013.6 1013.6 0.0
21/08:30pm 14.5 10.2 7.7 63 3.4 NE 20 26 11 14 1013.4 - 0.0
21/08:00pm 14.1 10.0 8.6 69 2.8 NE 20 26 11 14 1013.3 - 0.0
21/07:30pm 15.0 11.6 9.0 67 3.1 ENE 17 20 9 11 1013.3 - 0.0
21/07:00pm 16.0 12.1 8.6 61 3.8 ENE 19 24 10 13 1013.2 - 0.0
21/06:30pm 16.6 12.9 9.3 62 3.8 ENE 19 24 10 13 1013.4 - 0.0
21/06:00pm 16.9 12.7 8.3 57 4.4 ENE 20 24 11 13 1013.5 1013.5 0.0
21/05:30pm 17.0 12.9 8.5 57 4.4 ENE 20 28 11 15 1013.8 - 0.0
21/05:00pm 17.4 13.2 8.3 55 4.7 NE 20 26 11 14 1014.2 - 0.0
21/04:30pm 17.0 12.5 8.5 57 4.4 NE 22 28 12 15 1014.4 - 0.0
21/04:00pm 17.1 13.3 9.7 61 3.9 NE 20 26 11 14 1014.9 - 0.0
21/03:30pm 16.3 12.7 10.5 68 3.1 NNE 20 28 11 15 1015.3 - 0.0
21/03:00pm 17.1 13.6 10.8 66 3.4 N 20 28 11 15 1015.8 1015.7 0.0
21/02:30pm 17.4 13.7 11.4 68 3.3 N 22 30 12 16 1016.4 - 0.0
21/02:00pm 17.1 12.9 11.0 67 3.3 N 24 30 13 16 1016.7 - 0.0
21/01:30pm 17.0 12.4 11.1 68 3.2 NNE 26 33 14 18 1017.0 - 0.0
21/01:00pm 15.9 10.7 10.4 70 2.9 NNE 28 37 15 20 1017.5 - 0.0
21/12:30pm 16.1 11.3 10.3 68 3.1 N 26 35 14 19 1018.1 - 0.0
21/12:00pm 16.3 11.8 10.1 66 3.3 NNE 24 33 13 18 1018.6 1018.6 0.0
21/11:30am 15.8 11.3 9.9 68 3.1 N 24 32 13 17 1019.1 - 0.0
21/11:00am 15.4 10.9 9.9 70 2.9 N 24 32 13 17 1019.4 - 0.0
21/10:30am 15.3 11.9 11.4 77 2.1 NNE 20 28 11 15 1019.6 - 0.0
21/10:00am 14.6 11.3 10.8 78 2.0 N 19 26 10 14 1020.0 - 0.0
21/09:30am 13.8 10.3 10.8 82 1.6 N 20 30 11 16 1020.1 - 0.0
21/09:19am 13.7 10.1 10.5 81 1.7 N 20 - 11 - - 1020.1 0.0
21/09:00am 13.7 10.1 10.5 81 1.7 N 20 30 11 16 1020.1 1020.1 0.2
21/08:30am 12.9 9.4 11.0 88 1.0 NNE 20 30 11 16 1020.1 - 0.2
21/08:00am 12.2 9.3 10.9 92 0.7 N 17 26 9 14 1020.1 - 0.2
21/07:30am 11.5 8.4 10.3 92 0.6 NNE 17 24 9 13 1019.8 - 0.2
21/07:00am 11.2 8.9 10.4 95 0.4 NE 13 17 7 9 1019.8 - 0.2
21/06:30am 10.5 8.1 9.9 96 0.3 NE 13 17 7 9 1019.6 - 0.2
21/06:00am 10.1 7.5 9.5 96 0.3 NE 13 15 7 8 1019.5 1019.5 0.2
21/05:30am 9.7 7.1 9.3 97 0.2 NE 13 15 7 8 1019.6 - 0.2
21/05:00am 9.7 7.0 9.1 96 0.3 ENE 13 15 7 8 1019.7 - 0.2
21/04:30am 9.8 6.8 9.2 96 0.3 NE 15 17 8 9 1019.6 - 0.2
21/04:00am 9.9 7.2 9.1 95 0.4 NNE 13 15 7 8 1019.9 - 0.2
21/03:30am 9.7 7.3 8.7 93 0.5 NNE 11 13 6 7 1019.9 - 0.2
21/03:00am 9.5 7.5 8.5 93 0.5 NNE 9 11 5 6 1019.8 1019.8 0.2
21/02:30am 9.6 7.6 8.6 93 0.5 NNE 9 11 5 6 1020.1 - 0.2
21/02:00am 9.8 8.2 8.6 92 0.6 NNW 7 9 4 5 1020.5 - 0.2
21/01:30am 9.8 7.7 8.4 91 0.7 W 9 11 5 6 1021.0 - 0.2
21/01:00am 9.4 7.7 8.2 92 0.6 W 7 9 4 5 1021.1 - 0.2
21/12:30am 9.3 7.8 8.3 93 0.5 WNW 6 7 3 4 1021.4 - 0.2
21/12:00am 9.9 8.2 8.3 90 0.8 W 7 9 4 5 1021.6 1021.5 0.2
 
Date/Time
CDT
Temp
°C
App
Temp
°C
Dew
Point
°C
Rel
Hum
%
Delta-T
°C
Wind Press
QNH
hPa
Press
MSL
hPa
Rain since
9am
mm
Dir  Spd
km/h
Gust
km/h
Spd
kts
Gust
kts
20/11:30pm 10.2 9.2 8.8 91 0.7 NW 4 7 2 4 1022.0 - 0.2
20/11:00pm 9.8 8.7 8.6 92 0.6 W 4 7 2 4 1022.2 - 0.2
20/10:30pm 10.2 8.7 8.4 89 0.9 W 6 9 3 5 1022.4 - 0.2
20/10:00pm 10.7 8.7 8.7 87 1.0 W 9 13 5 7 1022.6 - 0.2
20/09:30pm 11.0 9.1 9.0 87 1.0 WNW 9 11 5 6 1022.3 - 0.2
20/09:00pm 11.2 9.2 8.8 85 1.2 W 9 11 5 6 1022.1 1022.1 0.2
20/08:30pm 11.8 9.8 8.8 82 1.5 WSW 9 15 5 8 1021.7 - 0.2
20/08:00pm 12.4 9.3 9.0 80 1.7 WSW 15 19 8 10 1021.5 - 0.2

Other Formats:

Comma delimited format used in spreadsheet applications
http://www.bom.gov.au/fwo/IDS60801/IDS60801.95805.axf

JavaScript Object Notation format (JSON) in row-major order
http://www.bom.gov.au/fwo/IDS60801/IDS60801.95805.json